Time;durP1;ratioP1;P1;durP2;ratioP2;P2;SDS_P1;SDS_P2;PMS_P1;PMS_P2;Temp;Humidity;BMP_temperature;BMP_pressure;BME280_temperature;BME280_humidity;BME280_pressure;Samples;Min_cycle;Max_cycle;Signal;HPM_P1;HPM_P2
2022/10/28 00:00:16;;;;;;;;;7.25;7.25;;;;;16.44;86.63;100630.97;5102474;27;45825;-91
2022/10/28 00:02:42;;;;;;;;;6.00;6.00;;;;;17.90;86.50;100884.47;5116711;27;45421;-91
2022/10/28 00:05:08;;;;;;;;;9.25;9.25;;;;;16.93;85.78;100701.78;5112250;27;45302;-92
2022/10/28 00:07:33;;;;;;;;;8.25;8.00;;;;;17.25;86.47;100755.56;5105273;27;47289;-91
2022/10/28 00:09:58;;;;;;;;;6.75;5.00;;;;;17.61;86.63;100816.28;5104168;27;44764;-91
2022/10/28 00:12:24;;;;;;;;;5.25;5.25;;;;;17.51;86.55;100803.34;5102748;27;45431;-90
2022/10/28 00:14:49;;;;;;;;;6.75;6.50;;;;;17.19;86.74;100760.25;5103958;27;45496;-92
2022/10/28 00:17:15;;;;;;;;;7.50;7.25;;;;;16.42;86.59;100631.97;5093401;27;46890;-91
2022/10/28 00:19:40;;;;;;;;;8.00;6.00;;;;;17.99;87.28;100905.47;5091705;27;45449;-91
2022/10/28 00:22:06;;;;;;;;;9.50;6.25;;;;;17.34;86.87;100811.22;5088744;27;45444;-91
2022/10/28 00:24:31;;;;;;;;;10.25;10.25;;;;;17.33;85.54;100793.50;5087788;27;45501;-91
2022/10/28 00:26:56;;;;;;;;;7.75;7.75;;;;;16.96;85.70;100747.03;5095946;27;46342;-90
2022/10/28 00:29:23;;;;;;;;;8.25;8.25;;;;;17.44;86.22;100836.63;5098396;27;45393;-91
2022/10/28 00:31:49;;;;;;;;;7.00;6.75;;;;;17.92;86.11;100902.19;5102535;27;45334;-91
2022/10/28 00:34:18;;;;;;;;;6.25;5.25;;;;;17.32;83.40;100813.13;5104195;27;45569;-91
2022/10/28 00:36:45;;;;;;;;;8.25;8.25;;;;;17.23;83.05;100809.03;5092964;27;46776;-91
2022/10/28 00:39:14;;;;;;;;;9.50;7.75;;;;;16.80;83.37;100731.66;5093996;27;45491;-91
2022/10/28 00:41:46;;;;;;;;;7.50;6.50;;;;;17.18;81.57;100801.22;5102395;27;45405;-91
2022/10/28 00:44:39;;;;;;;;;8.00;7.50;;;;;17.97;82.44;100911.81;5105226;27;45334;-91
2022/10/28 00:47:13;;;;;;;;;3.25;2.50;;;;;17.97;82.10;100909.16;5081647;27;46377;-92
2022/10/28 00:49:40;;;;;;;;;7.75;7.00;;;;;17.09;81.49;100764.25;5089051;27;45477;-92
2022/10/28 00:52:46;;;;;;;;;6.25;4.75;;;;;17.96;81.76;100904.72;5097536;27;45358;-92
2022/10/28 00:55:14;;;;;;;;;9.00;8.00;;;;;16.73;81.92;100703.50;5094539;27;45255;-91
2022/10/28 00:58:05;;;;;;;;;9.50;7.75;;;;;17.92;82.41;100896.84;5091541;27;47422;-92
2022/10/28 01:00:30;;;;;;;;;8.00;7.00;;;;;17.44;83.62;100807.22;5085104;27;45378;-92
2022/10/28 01:02:56;;;;;;;;;5.50;5.50;;;;;17.43;84.09;100804.63;5094428;27;45264;-91
2022/10/28 01:05:26;;;;;;;;;6.25;6.00;;;;;17.93;84.69;100887.00;5088646;27;45429;-91
2022/10/28 01:07:57;;;;;;;;;8.00;6.00;;;;;17.91;84.56;100894.25;5090247;27;47361;-91
2022/10/28 01:10:31;;;;;;;;;5.75;5.75;;;;;16.13;85.10;100602.06;5073689;27;45256;-91
2022/10/28 01:13:28;;;;;;;;;9.25;8.25;;;;;17.88;84.67;100889.84;5105637;27;45273;-92
2022/10/28 01:16:05;;;;;;;;;7.25;7.25;;;;;17.87;85.32;100888.16;5090630;27;45212;-92
2022/10/28 01:18:39;;;;;;;;;9.25;7.50;;;;;17.85;85.00;100898.03;5104938;27;47135;-91
2022/10/28 01:21:43;;;;;;;;;7.00;6.25;;;;;17.36;85.54;100820.94;5105519;27;45467;-91
2022/10/28 01:24:18;;;;;;;;;4.00;4.00;;;;;17.29;84.64;100807.91;5083940;27;45343;-91
2022/10/28 01:27:04;;;;;;;;;6.25;5.50;;;;;17.79;84.36;100892.09;5094247;27;45537;-91
2022/10/28 01:30:07;;;;;;;;;10.00;6.75;;;;;17.71;84.65;100882.63;5104265;27;46101;-92
2022/10/28 01:32:52;;;;;;;;;6.25;4.75;;;;;16.68;85.29;100710.84;5098718;27;45314;-91
2022/10/28 01:35:36;;;;;;;;;6.75;6.00;;;;;17.71;84.31;100887.09;5100324;27;45325;-91
2022/10/28 01:38:22;;;;;;;;;11.75;8.25;;;;;17.18;83.32;100809.25;5098367;27;45220;-91
2022/10/28 01:41:15;;;;;;;;;9.25;6.00;;;;;17.66;83.79;100884.63;5110290;27;47302;-91
2022/10/28 01:44:08;;;;;;;;;5.00;3.50;;;;;17.64;83.43;100882.97;5105893;27;45165;-93
2022/10/28 01:46:37;;;;;;;;;5.00;5.00;;;;;17.62;84.25;100879.50;5105446;27;45487;-91
2022/10/28 01:49:12;;;;;;;;;6.00;6.00;;;;;17.61;83.60;100877.75;5105451;27;45421;-92
2022/10/28 01:51:44;;;;;;;;;10.50;9.00;;;;;16.29;82.90;100659.16;5103818;27;46467;-91
2022/10/28 01:54:15;;;;;;;;;5.50;4.00;;;;;17.56;84.10;100878.81;5105093;27;45321;-91
2022/10/28 01:56:44;;;;;;;;;2.75;1.75;;;;;16.62;82.86;100735.13;5100004;27;45451;-91
2022/10/28 01:59:18;;;;;;;;;7.25;5.75;;;;;16.52;83.33;100700.00;5093804;27;45334;-91
2022/10/28 02:01:44;;;;;;;;;6.00;5.75;;;;;17.54;83.68;100885.19;5100559;27;47532;-91
2022/10/28 02:04:15;;;;;;;;;5.25;5.25;;;;;16.40;83.51;100682.69;5108727;27;45848;-90
2022/10/28 02:06:43;;;;;;;;;5.75;5.75;;;;;16.10;82.83;100635.06;5113411;27;45261;-91
2022/10/28 02:09:19;;;;;;;;;6.00;5.75;;;;;17.48;82.95;100870.28;5115313;27;45312;-92
2022/10/28 02:12:05;;;;;;;;;10.75;7.25;;;;;17.46;82.51;100889.97;5114054;27;45503;-90
2022/10/28 02:14:57;;;;;;;;;5.75;4.50;;;;;17.44;80.99;100871.34;5114608;27;45350;-91
2022/10/28 02:17:54;;;;;;;;;6.00;6.00;;;;;15.97;81.44;100665.81;5094720;27;45385;-91
2022/10/28 02:20:32;;;;;;;;;8.50;5.50;;;;;17.38;81.48;100859.16;5108127;27;45372;-91
2022/10/28 02:23:10;;;;;;;;;4.00;3.00;;;;;17.38;82.30;100856.47;5108383;27;48403;-91
2022/10/28 02:25:51;;;;;;;;;7.25;6.25;;;;;17.35;82.95;100855.72;5103620;27;45308;-90
2022/10/28 02:28:51;;;;;;;;;6.25;4.75;;;;;17.34;83.98;100853.97;5100012;27;44864;-91
2022/10/28 02:31:28;;;;;;;;;9.25;7.50;;;;;15.79;83.07;100606.13;5016952;28;45646;-91
2022/10/28 02:34:00;;;;;;;;;7.00;4.00;;;;;16.62;83.81;100761.81;4983674;28;47493;-91
2022/10/28 02:36:29;;;;;;;;;11.00;7.75;;;;;16.26;83.56;100683.28;5006338;28;45449;-91
2022/10/28 02:38:57;;;;;;;;;4.25;4.25;;;;;15.45;82.25;100557.72;5021339;28;45387;-91
2022/10/28 02:41:29;;;;;;;;;9.25;8.25;;;;;16.22;83.64;100680.81;5009702;28;45563;-91
2022/10/28 02:44:00;;;;;;;;;7.75;7.75;;;;;15.99;83.71;100634.66;5011970;28;47343;-92
2022/10/28 02:46:29;;;;;;;;;6.50;6.50;;;;;16.50;84.38;100734.72;4988320;28;45379;-91
2022/10/28 02:49:01;;;;;;;;;5.50;4.50;;;;;15.64;84.08;100588.97;5015829;28;44893;-92
2022/10/28 02:51:35;;;;;;;;;11.50;9.75;;;;;15.27;82.64;100521.19;5020962;28;45541;-93
2022/10/28 02:54:16;;;;;;;;;9.50;8.50;;;;;17.20;81.74;100852.81;5008609;28;48759;-93
2022/10/28 02:56:49;;;;;;;;;8.00;6.00;;;;;16.73;82.25;100778.22;4986687;28;45403;-92
2022/10/28 02:59:15;;;;;;;;;6.00;5.50;;;;;16.59;81.62;100765.47;5009793;28;45421;-93
2022/10/28 03:01:40;;;;;;;;;8.00;7.50;;;;;16.13;81.95;100680.25;5003996;28;45478;-91
2022/10/28 03:04:06;;;;;;;;;4.75;4.75;;;;;16.38;82.23;100723.69;5009130;28;46955;-90
2022/10/28 03:06:31;;;;;;;;;6.00;6.00;;;;;16.63;81.71;100761.75;4989157;28;45878;-92
2022/10/28 03:08:56;;;;;;;;;7.00;5.50;;;;;16.70;80.98;100781.03;5080526;27;45550;-92
2022/10/28 03:11:22;;;;;;;;;7.25;6.00;;;;;15.54;80.57;100579.63;5087220;27;45411;-92
2022/10/28 03:13:49;;;;;;;;;5.75;5.00;;;;;17.12;81.24;100836.22;5108019;27;46844;-92
2022/10/28 03:16:14;;;;;;;;;3.75;3.00;;;;;16.56;81.17;100732.72;5084652;27;45262;-94
2022/10/28 03:18:40;;;;;;;;;5.00;4.75;;;;;17.08;81.19;100837.31;5117138;27;45380;-93
2022/10/28 03:21:06;;;;;;;;;11.75;8.50;;;;;16.69;81.47;100761.47;5099617;27;45417;-92
2022/10/28 03:23:31;;;;;;;;;7.25;7.00;;;;;15.83;81.93;100615.75;5101328;27;46427;-92
2022/10/28 03:25:56;;;;;;;;;7.00;6.50;;;;;15.97;81.37;100650.72;5107392;27;45569;-91
2022/10/28 03:28:22;;;;;;;;;6.50;6.50;;;;;17.00;80.88;100818.91;5118500;27;45458;-92
2022/10/28 03:30:47;;;;;;;;;6.25;6.00;;;;;16.52;81.87;100727.53;5126702;27;45403;-92
2022/10/28 03:33:13;;;;;;;;;8.50;6.75;;;;;15.98;82.64;100636.44;5126818;27;47038;-91
2022/10/28 03:35:38;;;;;;;;;7.75;6.50;;;;;15.82;82.61;100651.34;5103688;27;46060;-92
2022/10/28 03:38:04;;;;;;;;;7.75;7.75;;;;;15.43;82.46;100548.94;5094058;27;45353;-92
2022/10/28 03:40:29;;;;;;;;;10.00;7.25;;;;;16.50;81.34;100737.41;5112868;27;45468;-93
2022/10/28 03:42:54;;;;;;;;;6.25;5.00;;;;;15.47;80.73;100549.69;5105541;27;48569;-91
2022/10/28 03:45:20;;;;;;;;;9.50;8.25;;;;;15.90;81.35;100617.22;5108502;27;45304;-91
2022/10/28 03:47:46;;;;;;;;;10.25;8.00;;;;;16.60;82.42;100740.53;5124694;27;45544;-91
2022/10/28 03:50:11;;;;;;;;;8.00;8.00;;;;;16.90;81.46;100795.34;5116310;27;45188;-91
2022/10/28 03:52:37;;;;;;;;;10.75;7.50;;;;;16.11;81.96;100666.13;5103929;27;48557;-92
2022/10/28 03:55:02;;;;;;;;;9.50;7.75;;;;;15.51;81.52;100569.09;5138433;27;44649;-92
2022/10/28 03:57:35;;;;;;;;;9.50;7.25;;;;;16.56;82.04;100744.25;5087082;27;45255;-93
2022/10/28 04:00:02;;;;;;;;;9.75;9.75;;;;;16.44;83.37;100727.00;5097756;27;45374;-92
2022/10/28 04:02:27;;;;;;;;;5.50;5.50;;;;;14.58;82.87;100429.00;5106616;27;47219;-92
2022/10/28 04:04:53;;;;;;;;;7.25;7.25;;;;;15.53;83.10;100567.22;5103585;27;45303;-92
2022/10/28 04:07:19;;;;;;;;;7.50;7.50;;;;;16.93;83.61;100816.56;5129720;27;45365;-92
2022/10/28 04:09:44;;;;;;;;;6.00;6.00;;;;;16.46;83.76;100732.25;5135098;27;45229;-92
2022/10/28 04:12:33;;;;;;;;;6.75;6.75;;;;;16.89;83.59;100809.66;5107067;27;48539;-93
2022/10/28 04:14:59;;;;;;;;;7.50;6.50;;;;;16.03;83.54;100667.38;5107735;27;45854;-92
2022/10/28 04:17:25;;;;;;;;;6.50;6.50;;;;;16.31;82.00;100725.75;5126395;27;45342;-90
2022/10/28 04:19:50;;;;;;;;;8.00;5.75;;;;;16.81;81.58;100808.13;5109346;27;45519;-92
2022/10/28 04:22:16;;;;;;;;;7.50;7.50;;;;;15.95;82.52;100673.00;5106963;27;46511;-91
2022/10/28 04:24:42;;;;;;;;;10.00;7.25;;;;;16.77;81.94;100822.53;5106832;27;45311;-93
2022/10/28 04:27:10;;;;;;;;;9.50;8.75;;;;;16.76;82.06;100819.94;5101259;27;45247;-92
2022/10/28 04:29:36;;;;;;;;;6.25;6.00;;;;;16.32;81.58;100751.47;5068140;27;45602;-92
2022/10/28 04:32:01;;;;;;;;;8.00;5.75;;;;;16.03;82.44;100700.22;5097368;27;47484;-92
2022/10/28 04:34:27;;;;;;;;;8.25;7.00;;;;;16.27;81.20;100740.16;5103374;27;45758;-93
2022/10/28 04:36:52;;;;;;;;;8.00;7.00;;;;;16.37;81.60;100770.84;5083335;27;45405;-93
2022/10/28 04:39:17;;;;;;;;;8.25;6.50;;;;;15.95;82.19;100719.19;5086339;27;45526;-93
2022/10/28 04:41:43;;;;;;;;;7.50;5.75;;;;;16.67;83.14;100822.06;5092752;27;46576;-92
2022/10/28 04:44:11;;;;;;;;;10.00;7.00;;;;;16.00;83.59;100703.00;5089836;27;45252;-92
2022/10/28 04:46:37;;;;;;;;;6.50;6.50;;;;;16.67;83.52;100810.50;5083691;27;45397;-91
2022/10/28 04:49:02;;;;;;;;;9.50;8.25;;;;;16.23;83.30;100749.19;5067604;27;45555;-91
2022/10/28 04:51:28;;;;;;;;;9.00;6.75;;;;;16.30;83.89;100754.22;5101269;27;46703;-92
2022/10/28 04:53:53;;;;;;;;;6.50;6.50;;;;;15.57;84.08;100651.41;5084751;27;45846;-91
2022/10/28 04:56:19;;;;;;;;;9.25;7.75;;;;;16.13;83.26;100724.72;5091044;27;44674;-91
2022/10/28 04:58:46;;;;;;;;;6.00;5.00;;;;;16.42;82.60;100790.19;5110558;27;45274;-90
2022/10/28 05:01:12;;;;;;;;;7.00;7.00;;;;;16.01;82.31;100702.09;5098248;27;46758;-92
2022/10/28 05:03:38;;;;;;;;;8.75;8.00;;;;;15.78;83.12;100671.03;5093335;27;45400;-90
2022/10/28 05:06:03;;;;;;;;;6.75;6.75;;;;;16.10;82.90;100725.69;5096717;27;45187;-91
2022/10/28 05:08:29;;;;;;;;;11.75;11.00;;;;;14.53;82.54;100457.53;5117218;27;44899;-92
2022/10/28 05:10:54;;;;;;;;;10.50;8.00;;;;;16.07;82.27;100719.63;5100923;27;45362;-91
2022/10/28 05:13:20;;;;;;;;;6.75;6.75;;;;;15.97;81.69;100705.78;5118178;27;45448;-91
2022/10/28 05:15:49;;;;;;;;;8.00;6.75;;;;;14.80;81.88;100522.13;5096071;27;45356;-92
2022/10/28 05:18:14;;;;;;;;;5.25;5.25;;;;;14.71;82.03;100511.84;5100225;27;45556;-91
2022/10/28 05:20:43;;;;;;;;;5.50;3.75;;;;;15.54;81.21;100649.72;5097306;27;46334;-91
2022/10/28 05:23:08;;;;;;;;;8.25;7.50;;;;;14.83;81.27;100506.06;5099089;27;44846;-92
2022/10/28 05:25:34;;;;;;;;;5.75;5.25;;;;;15.33;81.01;100592.84;5090070;27;45508;-91
2022/10/28 05:28:03;;;;;;;;;8.00;7.25;;;;;15.91;81.41;100684.72;5104667;27;45453;-93
2022/10/28 05:30:29;;;;;;;;;11.75;8.75;;;;;15.28;81.40;100598.34;5106779;27;47178;-92
2022/10/28 05:33:00;;;;;;;;;11.25;8.50;;;;;16.56;81.47;100807.44;5111961;27;45283;-92
2022/10/28 05:35:55;;;;;;;;;;;;;;;;;;;;;
2022/10/28 05:38:48;;;;;;;;;11.50;9.00;;;;;14.27;81.11;100429.28;5123893;27;69108;-92
2022/10/28 05:44:31;;;;;;;;;8.00;8.00;;;;;15.38;80.96;100604.19;4982663;28;46308;-92
2022/10/28 05:46:57;;;;;;;;;9.50;6.00;;;;;14.75;79.97;100506.34;4981746;28;45418;-93
2022/10/28 05:49:22;;;;;;;;;8.00;6.25;;;;;15.06;80.33;100553.09;4975283;28;45302;-93
2022/10/28 05:51:48;;;;;;;;;10.75;9.25;;;;;14.03;80.75;100378.81;4993166;28;47666;-93
2022/10/28 05:54:13;;;;;;;;;5.75;5.25;;;;;15.35;80.77;100601.66;4982792;28;45530;-92
2022/10/28 05:56:39;;;;;;;;;11.25;8.50;;;;;16.55;80.22;100821.69;4979561;28;45263;-92
2022/10/28 05:59:09;;;;;;;;;8.00;8.00;;;;;14.09;79.70;100393.63;4968222;28;45176;-93
2022/10/28 06:01:35;;;;;;;;;7.00;6.50;;;;;15.99;80.35;100712.81;4980949;28;47155;-92
2022/10/28 06:04:01;;;;;;;;;9.25;9.25;;;;;15.03;80.39;100561.19;4980213;28;45425;-91
2022/10/28 06:06:29;;;;;;;;;9.75;7.25;;;;;15.51;79.84;100646.31;4981666;28;45467;-92
2022/10/28 06:08:55;;;;;;;;;6.25;6.25;;;;;15.71;79.03;100672.16;4979231;28;45500;-92
2022/10/28 06:11:21;;;;;;;;;10.50;7.00;;;;;14.45;79.47;100467.59;4963936;28;46044;-92
2022/10/28 06:13:47;;;;;;;;;11.75;9.50;;;;;16.58;79.73;100829.56;4965841;28;45771;-92
2022/10/28 06:16:13;;;;;;;;;6.75;6.50;;;;;15.99;79.95;100734.13;4981080;28;45385;-92
2022/10/28 06:18:38;;;;;;;;;7.00;7.00;;;;;15.62;79.59;100668.06;4981242;28;45699;-92
2022/10/28 06:21:21;;;;;;;;;9.00;6.25;;;;;14.54;78.94;100484.06;5007582;27;48183;-91
2022/10/28 06:23:55;;;;;;;;;9.75;6.25;;;;;16.02;79.75;100743.81;5093217;27;44787;-92
2022/10/28 06:26:21;;;;;;;;;7.75;6.75;;;;;14.69;80.09;100524.34;5088500;27;45240;-92
2022/10/28 06:28:51;;;;;;;;;9.25;7.25;;;;;15.09;79.46;100595.56;5089452;27;45652;-92
2022/10/28 06:31:25;;;;;;;;;3.25;3.25;;;;;14.42;79.30;100483.69;5087141;27;46144;-92
2022/10/28 06:34:15;;;;;;;;;8.00;8.00;;;;;16.45;79.94;100863.91;5112660;27;44803;-93
2022/10/28 06:36:40;;;;;;;;;9.25;7.75;;;;;15.92;79.99;100753.09;5100131;27;45226;-92
2022/10/28 06:39:09;;;;;;;;;6.50;4.00;;;;;15.00;79.34;100601.22;5101324;27;45248;-93
2022/10/28 06:41:34;;;;;;;;;7.50;7.50;;;;;15.33;79.44;100654.09;5106308;27;46079;-92
2022/10/28 06:44:02;;;;;;;;;9.75;7.75;;;;;14.86;80.26;100622.16;5104576;27;46056;-92
2022/10/28 06:46:34;;;;;;;;;6.75;6.75;;;;;14.81;79.90;100586.88;5112422;27;45294;-91
2022/10/28 06:49:04;;;;;;;;;9.25;6.75;;;;;14.43;79.30;100512.00;5088706;27;45429;-93
2022/10/28 06:51:31;;;;;;;;;7.25;6.50;;;;;13.79;79.66;100449.63;5105554;27;45373;-92
2022/10/28 06:53:57;;;;;;;;;5.00;5.00;;;;;14.15;80.08;100489.06;5091549;27;45396;-92
2022/10/28 06:56:25;;;;;;;;;9.50;9.50;;;;;15.91;79.86;100804.66;5091539;27;45406;-91
2022/10/28 06:58:54;;;;;;;;;11.50;10.00;;;;;14.81;79.24;100613.50;5093279;27;45399;-93
2022/10/28 07:01:21;;;;;;;;;5.00;4.50;;;;;14.82;79.21;100620.53;5111830;27;46801;-93
2022/10/28 07:03:47;;;;;;;;;10.00;8.50;;;;;14.81;79.87;100629.44;5099294;27;45353;-92
2022/10/28 07:06:13;;;;;;;;;7.25;7.25;;;;;15.75;80.34;100813.22;5109916;27;45369;-91
2022/10/28 07:08:41;;;;;;;;;8.50;7.50;;;;;16.31;80.51;100915.13;5108515;27;45445;-92
2022/10/28 07:11:06;;;;;;;;;8.50;8.00;;;;;13.63;80.43;100452.78;5123769;27;48102;-94
2022/10/28 07:13:33;;;;;;;;;8.00;6.50;;;;;16.33;81.10;100876.75;5106895;27;45345;-91
2022/10/28 07:15:59;;;;;;;;;8.75;6.25;;;;;16.22;80.00;100889.66;5103347;27;45257;-94
2022/10/28 07:18:27;;;;;;;;;7.50;6.50;;;;;13.60;79.58;100452.91;5106572;27;45205;-94
2022/10/28 07:20:52;;;;;;;;;10.75;9.50;;;;;15.38;79.48;100724.03;5104695;27;47393;-94
2022/10/28 07:23:18;;;;;;;;;9.00;7.25;;;;;15.34;79.22;100721.53;5105220;27;45440;-93
2022/10/28 07:25:51;;;;;;;;;9.75;7.75;;;;;15.76;79.36;100780.31;5110733;27;44866;-93
2022/10/28 07:28:16;;;;;;;;;9.50;8.25;;;;;14.96;79.28;100652.84;5120748;27;45576;-92
2022/10/28 07:30:42;;;;;;;;;6.00;5.50;;;;;16.59;79.10;100930.03;5107850;27;47471;-93
2022/10/28 07:33:07;;;;;;;;;7.50;5.75;;;;;15.35;78.81;100684.22;5129958;27;45441;-92
2022/10/28 07:35:33;;;;;;;;;12.25;8.75;;;;;16.29;79.03;100812.94;5133797;27;45227;-91
2022/10/28 07:38:04;;;;;;;;;8.50;7.00;;;;;16.20;78.56;100822.19;5105295;27;45500;-92
2022/10/28 07:40:32;;;;;;;;;13.50;8.25;;;;;16.58;77.93;100826.91;5092263;27;47113;-93
2022/10/28 07:43:00;;;;;;;;;6.50;5.75;;;;;17.29;77.54;100909.41;5106916;27;45422;-93
2022/10/28 07:45:29;;;;;;;;;7.75;7.75;;;;;15.97;77.36;100661.38;5104513;27;45433;-93
2022/10/28 07:48:04;;;;;;;;;10.25;8.00;;;;;16.11;76.03;100674.13;5086212;27;45307;-94
2022/10/28 07:50:32;;;;;;;;;6.75;5.75;;;;;16.38;75.99;100695.22;5103509;27;47427;-93
2022/10/28 07:53:06;;;;;;;;;8.00;6.75;;;;;16.94;76.60;100764.94;5105272;27;45290;-92
2022/10/28 07:55:31;;;;;;;;;9.00;8.50;;;;;17.59;76.72;100859.13;5109059;27;44631;-92
2022/10/28 07:58:07;;;;;;;;;5.25;5.25;;;;;17.23;75.44;100767.19;5105964;27;45200;-91
2022/10/28 08:00:47;;;;;;;;;9.75;6.75;;;;;17.07;76.14;100712.75;5107590;27;47348;-91
2022/10/28 08:03:20;;;;;;;;;9.00;7.75;;;;;16.45;75.90;100574.00;5116906;27;45516;-92
2022/10/28 08:05:45;;;;;;;;;9.50;8.00;;;;;18.57;74.44;100928.63;5093030;27;45402;-92
2022/10/28 08:08:22;;;;;;;;;11.75;9.25;;;;;18.85;74.63;100958.56;5114606;27;45582;-91
2022/10/28 08:10:49;;;;;;;;;6.75;6.75;;;;;18.04;74.83;100806.31;5116376;27;46866;-92
2022/10/28 08:13:24;;;;;;;;;8.25;5.25;;;;;19.04;75.81;100963.88;5114925;27;44619;-93
2022/10/28 08:15:59;;;;;;;;;10.50;9.00;;;;;19.11;75.11;100968.00;5109065;27;45256;-94
2022/10/28 08:21:15;;;;;;;;;6.00;6.00;;;;;17.31;75.13;100653.78;5128386;27;45509;-92
2022/10/28 08:23:45;;;;;;;;;9.00;8.00;;;;;18.87;75.16;100941.47;5122672;27;45423;-92
2022/10/28 08:27:09;;;;;;;;;11.75;7.25;;;;;19.13;76.53;100979.50;5109737;27;45273;-92
2022/10/28 08:29:40;;;;;;;;;8.50;8.50;;;;;19.13;76.42;100968.78;5135137;27;44792;-91
2022/10/28 08:33:02;;;;;;;;;5.50;5.50;;;;;19.12;75.53;100988.50;5113574;27;45505;-93
2022/10/28 08:35:42;;;;;;;;;8.50;7.00;;;;;17.59;74.64;100742.38;5112921;27;45388;-93
2022/10/28 08:38:18;;;;;;;;;12.25;9.00;;;;;18.15;74.85;100827.19;5109064;27;44697;-94
2022/10/28 08:41:09;;;;;;;;;7.50;6.50;;;;;19.04;74.05;100975.50;5103843;27;45192;-93
2022/10/28 08:44:04;;;;;;;;;8.00;5.50;;;;;18.57;73.08;100911.69;5108061;27;46878;-92
2022/10/28 08:47:16;;;;;;;;;9.50;9.00;;;;;17.93;72.77;100788.97;5108235;27;46219;-93
2022/10/28 08:49:47;;;;;;;;;14.50;12.50;;;;;19.15;73.29;100973.13;5031073;28;44719;-94
2022/10/28 08:52:30;;;;;;;;;6.75;6.00;;;;;19.40;72.82;100998.69;5042957;28;45789;-94
2022/10/28 08:55:28;;;;;;;;;11.00;8.25;;;;;18.53;70.65;100835.19;5041519;28;45422;-93
2022/10/28 08:58:55;;;;;;;;;7.25;7.25;;;;;18.72;72.09;100843.16;5018136;28;45928;-93
2022/10/28 09:01:34;;;;;;;;;8.00;7.00;;;;;18.70;73.36;100855.75;5040331;28;45588;-92
2022/10/28 09:04:12;;;;;;;;;3.75;2.00;;;;;17.40;72.06;100618.66;5018083;28;44909;-93
2022/10/28 09:07:17;;;;;;;;;;;;;;;;;;;;;
2022/10/28 09:10:11;;;;;;;;;;;;;;;;;;;;;
2022/10/28 09:13:17;;;;;;;;;7.25;6.00;;;;;18.86;73.94;100803.22;5009738;28;67906;-93
2022/10/28 09:16:07;;;;;;;;;11.75;8.00;;;;;18.70;73.19;100746.00;5010102;28;45006;-93
2022/10/28 09:18:57;;;;;;;;;9.25;8.00;;;;;19.67;73.80;100865.06;5030365;28;46902;-93
2022/10/28 09:21:33;;;;;;;;;8.00;7.00;;;;;20.35;73.80;100949.09;5024926;28;45225;-93
2022/10/28 09:24:19;;;;;;;;;7.75;7.75;;;;;18.52;74.04;100608.63;5036053;28;45374;-92
2022/10/28 09:27:09;;;;;;;;;6.50;6.50;;;;;20.21;72.86;100867.53;5074753;27;45333;-94
2022/10/28 09:30:09;;;;;;;;;7.00;7.00;;;;;20.49;73.84;100881.22;5085702;27;46996;-93
2022/10/28 09:32:59;;;;;;;;;7.00;6.00;;;;;21.59;74.11;101042.41;5084844;27;45445;-94
2022/10/28 09:35:37;;;;;;;;;8.25;7.00;;;;;21.11;73.59;100953.78;5031034;28;45357;-94
2022/10/28 09:38:37;;;;;;;;;7.50;7.00;;;;;21.97;74.15;101050.91;5025266;28;45300;-93
2022/10/28 09:41:42;;;;;;;;;8.25;6.50;;;;;19.88;73.85;100678.00;5061576;28;45780;-93
2022/10/28 09:44:40;;;;;;;;;8.25;6.50;;;;;22.31;73.81;101064.16;5037493;28;45353;-94
2022/10/28 09:47:35;;;;;;;;;4.25;4.25;;;;;20.34;72.53;100712.03;5062140;28;45351;-93
2022/10/28 09:50:29;;;;;;;;;7.00;7.00;;;;;21.05;73.44;100831.41;5059158;28;45374;-93
2022/10/28 09:53:30;;;;;;;;;;;;;;;;;;;;;
2022/10/28 09:56:14;;;;;;;;;8.00;6.25;;;;;21.01;73.28;100786.88;5061684;28;71919;-93
2022/10/28 09:58:45;;;;;;;;;6.75;6.75;;;;;21.97;73.76;100940.59;5068963;28;45388;-92
2022/10/28 10:04:46;;;;;;;;;7.50;7.50;;;;;21.37;74.11;100833.13;5069944;28;45458;-91
2022/10/28 10:07:58;;;;;;;;;9.00;8.00;;;;;21.07;74.25;100777.56;5077973;27;45494;-93
2022/10/28 10:10:35;;;;;;;;;8.50;5.00;;;;;21.01;74.56;100791.38;5080603;27;44901;-93
2022/10/28 10:13:10;;;;;;;;;9.25;7.00;;;;;21.56;74.07;100883.94;5083939;27;45441;-93
2022/10/28 10:15:43;;;;;;;;;8.00;6.00;;;;;21.86;73.29;100934.97;5084364;27;46783;-91
2022/10/28 10:18:49;;;;;;;;;5.50;5.50;;;;;20.19;71.27;100665.53;5092852;27;45348;-92
2022/10/28 10:21:44;;;;;;;;;7.50;7.50;;;;;21.82;72.64;100939.69;5090151;27;45533;-93
2022/10/28 10:24:22;;;;;;;;;9.75;8.50;;;;;22.62;73.96;101079.25;5073376;27;45446;-92
2022/10/28 10:27:12;;;;;;;;;6.25;6.25;;;;;22.03;73.30;101017.38;5093343;27;47835;-92
2022/10/28 10:33:27;;;;;;;;;5.00;5.00;;;;;21.04;73.80;100808.19;5102159;27;45323;-93
2022/10/28 10:36:36;;;;;;;;;8.25;7.50;;;;;21.30;74.64;100829.91;5084495;27;45475;-93
2022/10/28 10:39:26;;;;;;;;;9.25;8.50;;;;;21.68;72.97;100877.81;5083127;27;46884;-93
2022/10/28 10:42:15;;;;;;;;;7.50;6.50;;;;;20.72;73.10;100716.97;5087531;27;44823;-93
2022/10/28 10:44:44;;;;;;;;;7.25;7.25;;;;;23.07;73.72;101095.31;5081124;27;45406;-93
2022/10/28 10:47:15;;;;;;;;;8.00;5.00;;;;;22.83;73.56;101036.63;5082240;27;45517;-93
2022/10/28 10:53:20;;;;;;;;;6.00;6.00;;;;;23.07;73.12;101052.19;5098459;27;45180;-92
2022/10/28 10:56:22;;;;;;;;;;;;;;;;;;;;;
2022/10/28 10:59:30;;;;;;;;;8.25;8.25;;;;;23.34;73.66;101043.28;5107830;27;70045;-93
2022/10/28 11:03:00;;;;;;;;;6.50;6.50;;;;;23.00;73.44;100949.31;5116581;27;46274;-93
2022/10/28 11:05:37;;;;;;;;;6.75;6.75;;;;;22.49;73.23;100854.81;4947777;28;45303;-92
2022/10/28 11:08:32;;;;;;;;;9.00;7.50;;;;;22.54;72.88;100840.06;4960440;28;45541;-92
2022/10/28 11:11:45;;;;;;;;;8.50;7.25;;;;;24.35;73.17;101112.94;4964121;28;45267;-94
2022/10/28 11:17:35;;;;;;;;;7.75;7.75;;;;;23.46;72.69;100972.34;4937193;28;44760;-93
2022/10/28 11:20:33;;;;;;;;;9.50;9.50;;;;;24.55;72.52;101142.13;4937227;28;45191;-92
2022/10/28 11:23:35;;;;;;;;;;;;;;;;;;;;;
2022/10/28 11:26:21;;;;;;;;;11.25;9.50;;;;;23.52;72.33;100977.31;4925153;28;74373;-93
2022/10/28 11:29:19;;;;;;;;;7.50;6.50;;;;;24.79;72.89;101153.09;4906619;28;45348;-93
2022/10/28 11:32:16;;;;;;;;;9.50;9.00;;;;;24.96;71.50;101132.94;4847106;29;45449;-92
2022/10/28 11:35:29;;;;;;;;;9.75;8.25;;;;;23.28;71.68;100838.78;4854042;29;44805;-93
2022/10/28 11:38:39;;;;;;;;;8.50;7.50;;;;;25.30;71.87;101140.47;4837253;29;45463;-92
2022/10/28 11:41:42;;;;;;;;;9.00;6.50;;;;;25.47;71.61;101129.25;4886527;28;45559;-94
2022/10/28 11:48:27;;;;;;;;;6.75;5.25;;;;;25.97;72.00;101141.81;4848912;29;45637;-93
2022/10/28 11:55:08;;;;;;;;;8.25;8.00;;;;;26.64;71.42;101132.16;4883502;29;45540;-93
2022/10/28 12:07:51;;;;;;;;;6.75;6.75;;;;;29.14;67.31;101109.34;4930059;28;45547;-93
2022/10/28 12:11:09;;;;;;;;;6.75;6.75;;;;;29.26;67.25;101044.81;4976288;28;45455;-94
2022/10/28 12:14:01;;;;;;;;;6.00;4.75;;;;;29.27;65.73;100989.38;4960924;28;44930;-94
2022/10/28 12:19:54;;;;;;;;;5.25;4.75;;;;;30.49;65.97;101097.81;4975681;28;45628;-93
2022/10/28 12:22:48;;;;;;;;;6.75;5.00;;;;;29.28;65.84;100863.19;4957375;27;45557;-93
2022/10/28 12:25:53;;;;;;;;;;;;;;;;;;;;;
2022/10/28 12:29:01;;;;;;;;;;;;;;;;;;;;;
2022/10/28 12:45:18;;;;;;;;;5.75;5.75;;;;;29.00;68.44;101126.91;5011734;28;45340;-93
2022/10/28 12:47:54;;;;;;;;;7.75;7.75;;;;;27.90;67.84;101013.28;5004679;28;45373;-92
2022/10/28 12:50:32;;;;;;;;;5.75;5.75;;;;;28.35;67.37;101137.13;4985254;28;45543;-93
2022/10/28 12:53:15;;;;;;;;;4.25;4.25;;;;;28.01;69.89;101121.00;4983561;28;48183;-93
2022/10/28 12:55:54;;;;;;;;;;;;;;;;;;;;;
2022/10/28 12:58:34;;;;;;;;;4.25;4.25;;;;;26.19;70.06;100916.25;5001834;28;67919;-93
2022/10/28 13:01:17;;;;;;;;;7.50;6.50;;;;;25.48;71.08;100860.47;5000350;28;45361;-95
2022/10/28 13:11:26;;;;;;;;;6.50;6.50;;;;;26.43;72.04;101132.88;4965537;28;45366;-93
2022/10/28 13:14:21;;;;;;;;;5.50;5.50;;;;;26.27;72.01;101135.03;4954738;28;45556;-93
2022/10/28 13:17:52;;;;;;;;;6.00;4.50;;;;;26.08;71.46;101147.28;4979849;28;45141;-93
2022/10/28 13:20:55;;;;;;;;;6.50;6.50;;;;;25.89;71.87;101145.13;4893849;29;44732;-93
2022/10/28 13:23:46;;;;;;;;;6.25;6.25;;;;;25.70;71.43;101141.06;4930666;28;45407;-93